Time;durP1;ratioP1;P1;durP2;ratioP2;P2;SDS_P1;SDS_P2;PMS_P1;PMS_P2;Temp;Humidity;BMP_temperature;BMP_pressure;BME280_temperature;BME280_humidity;BME280_pressure;Samples;Min_cycle;Max_cycle;Signal;HPM_P1;HPM_P2
2021/11/10 00:01:24;;;;;;;3.70;2.30;;;;;;;0.99;100.00;101499.05;1754256;81;21009;-71
2021/11/10 00:03:51;;;;;;;4.50;2.60;;;;;;;0.91;100.00;101498.10;1724603;83;21122;-71
2021/11/10 00:06:19;;;;;;;6.90;2.77;;;;;;;0.84;100.00;101506.47;1712707;83;21560;-72
2021/11/10 00:08:46;;;;;;;5.60;2.50;;;;;;;0.77;100.00;101501.89;1723704;83;21043;-72
2021/11/10 00:11:13;;;;;;;4.57;2.00;;;;;;;0.67;100.00;101506.77;1723675;83;21039;-72
2021/11/10 00:13:40;;;;;;;4.90;2.07;;;;;;;0.64;100.00;101514.92;1719133;83;21106;-72
2021/11/10 00:16:07;;;;;;;3.80;1.90;;;;;;;0.61;100.00;101515.05;1723585;83;21553;-71
2021/11/10 00:18:35;;;;;;;3.97;2.47;;;;;;;0.56;100.00;101519.72;1720376;83;21082;-73
2021/11/10 00:21:02;;;;;;;3.67;2.10;;;;;;;0.54;100.00;101521.59;1723242;83;21046;-71
2021/11/10 00:23:29;;;;;;;3.47;1.87;;;;;;;0.51;100.00;101521.73;1725338;83;21635;-72
2021/11/10 00:25:56;;;;;;;4.37;2.00;;;;;;;0.49;100.00;101528.45;1718895;83;21039;-70
2021/11/10 00:28:23;;;;;;;4.53;2.37;;;;;;;0.46;100.00;101526.39;1724258;83;21079;-70
2021/11/10 00:30:51;;;;;;;5.03;2.30;;;;;;;0.41;100.00;101527.06;1723729;82;21088;-72
2021/11/10 00:33:18;;;;;;;4.53;2.27;;;;;;;0.33;100.00;101534.93;1723543;83;21117;-72
2021/11/10 00:35:45;;;;;;;3.17;2.33;;;;;;;0.28;100.00;101527.61;1723614;83;21493;-73
2021/11/10 00:38:11;;;;;;;4.13;1.90;;;;;;;0.23;100.00;101522.99;1719633;83;21028;-73
2021/11/10 00:40:39;;;;;;;3.33;1.80;;;;;;;0.16;100.00;101525.05;1728146;83;21142;-71
2021/11/10 00:43:06;;;;;;;6.07;1.90;;;;;;;0.09;100.00;101528.03;1718275;83;21585;-70
2021/11/10 00:45:33;;;;;;;2.80;1.67;;;;;;;0.04;100.00;101534.05;1723205;83;21086;-72
2021/11/10 00:48:00;;;;;;;4.90;1.57;;;;;;;-0.05;100.00;101526.00;1721531;83;21078;-72
2021/11/10 00:50:28;;;;;;;3.00;1.43;;;;;;;-0.09;100.00;101537.67;1722547;83;21080;-72
2021/11/10 00:52:55;;;;;;;1.87;1.77;;;;;;;-0.16;100.00;101530.45;1723616;83;21034;-72
2021/11/10 00:55:24;;;;;;;2.47;1.73;;;;;;;-0.22;100.00;101552.83;1713627;82;21042;-71
2021/11/10 00:57:51;;;;;;;3.03;1.97;;;;;;;-0.26;100.00;101547.72;1717869;83;21043;-71
2021/11/10 01:00:18;;;;;;;1.67;1.57;;;;;;;-0.29;100.00;101557.14;1713852;83;21524;-72
2021/11/10 01:02:46;;;;;;;1.53;1.40;;;;;;;-0.36;100.00;101562.31;1719716;83;21094;-74
2021/11/10 01:05:12;;;;;;;2.37;1.97;;;;;;;-0.40;100.00;101569.55;1722500;81;21022;-72
2021/11/10 01:07:40;;;;;;;2.50;1.70;;;;;;;-0.44;100.00;101575.93;1733170;80;20978;-72
2021/11/10 01:10:07;;;;;;;1.70;1.60;;;;;;;-0.47;100.00;101584.02;1785443;80;21492;-71
2021/11/10 01:12:36;;;;;;;3.27;1.90;;;;;;;-0.49;100.00;101587.21;1780896;80;21529;-71
2021/11/10 01:15:06;;;;;;;5.67;2.20;;;;;;;-0.53;100.00;101595.77;1779282;80;20979;-71
2021/11/10 01:17:34;;;;;;;3.73;2.57;;;;;;;-0.57;100.00;101595.47;1780405;80;21023;-72
2021/11/10 01:20:02;;;;;;;3.40;1.87;;;;;;;-0.62;100.00;101594.34;1785334;80;21028;-72
2021/11/10 01:22:30;;;;;;;2.33;1.93;;;;;;;-0.65;100.00;101595.78;1776738;80;20994;-72
2021/11/10 01:24:58;;;;;;;5.63;2.40;;;;;;;-0.68;100.00;101603.88;1774049;80;21129;-72
2021/11/10 01:27:25;;;;;;;1.87;1.70;;;;;;;-0.70;100.00;101604.88;1783401;80;21041;-72
2021/11/10 01:29:52;;;;;;;3.37;2.20;;;;;;;-0.73;100.00;101617.79;1785823;80;21484;-72
2021/11/10 01:32:19;;;;;;;2.43;2.10;;;;;;;-0.77;100.00;101613.53;1772670;80;21034;-73
2021/11/10 01:34:46;;;;;;;2.43;1.93;;;;;;;-0.80;100.00;101622.50;1782721;80;21045;-71
2021/11/10 01:37:15;;;;;;;2.53;1.93;;;;;;;-0.81;100.00;101627.88;1776164;80;21061;-71
2021/11/10 01:39:43;;;;;;;2.57;1.90;;;;;;;-0.84;100.00;101632.82;1779652;80;21035;-72
2021/11/10 01:42:12;;;;;;;3.73;1.87;;;;;;;-0.86;100.00;101636.47;1779604;80;21034;-73
2021/11/10 01:44:41;;;;;;;2.70;1.77;;;;;;;-0.89;100.00;101639.23;1781214;80;21018;-71
2021/11/10 01:47:11;;;;;;;2.17;1.93;;;;;;;-0.91;100.00;101651.71;1786093;80;21503;-72
2021/11/10 01:49:41;;;;;;;4.63;2.03;;;;;;;-0.94;100.00;101655.80;1785819;80;21014;-72
2021/11/10 01:52:09;;;;;;;2.10;1.80;;;;;;;-0.97;100.00;101656.33;1780427;80;21026;-72
2021/11/10 01:54:37;;;;;;;3.43;2.00;;;;;;;-0.99;100.00;101652.87;1758933;80;21070;-73
2021/11/10 01:57:05;;;;;;;4.57;1.80;;;;;;;-1.02;100.00;101649.46;1718184;83;21087;-72
2021/11/10 01:59:45;;;;;;;3.40;2.00;;;;;;;-1.06;100.00;101652.70;1724092;83;21066;-71
2021/11/10 02:02:27;;;;;;;3.10;2.07;;;;;;;-1.08;100.00;101662.51;1724160;83;21525;-72
2021/11/10 02:05:01;;;;;;;2.87;2.07;;;;;;;-1.10;100.00;101672.77;1751626;80;21557;-72
2021/11/10 02:07:30;;;;;;;2.87;1.87;;;;;;;-1.16;100.00;101668.08;1778589;78;21036;-73
2021/11/10 02:09:58;;;;;;;2.07;1.83;;;;;;;-1.18;100.00;101672.58;1807604;79;21034;-73
2021/11/10 02:12:27;;;;;;;1.60;1.43;;;;;;;-1.22;100.00;101664.34;1817571;78;21035;-73
2021/11/10 02:14:55;;;;;;;2.63;1.70;;;;;;;-1.24;100.00;101668.84;1796668;78;21047;-71
2021/11/10 02:17:25;;;;;;;2.27;1.60;;;;;;;-1.28;100.00;101663.22;1807926;79;21053;-71
2021/11/10 02:19:54;;;;;;;3.30;1.80;;;;;;;-1.30;100.00;101657.57;1820087;79;21002;-73
2021/11/10 02:22:24;;;;;;;7.70;2.00;;;;;;;-1.31;100.00;101672.64;1822473;78;21029;-72
2021/11/10 02:24:51;;;;;;;2.00;1.50;;;;;;;-1.35;100.00;101673.64;1818000;78;21465;-71
2021/11/10 02:27:21;;;;;;;1.90;1.70;;;;;;;-1.38;100.00;101686.58;1819836;79;21037;-73
2021/11/10 02:29:49;;;;;;;2.97;1.70;;;;;;;-1.40;100.00;101685.77;1812552;78;21017;-72
2021/11/10 02:32:17;;;;;;;4.10;1.83;;;;;;;-1.41;100.00;101692.45;1821859;78;21024;-73
2021/11/10 02:34:46;;;;;;;2.90;2.27;;;;;;;-1.42;100.00;101701.32;1824203;78;21025;-72
2021/11/10 02:37:15;;;;;;;4.40;1.80;;;;;;;-1.45;100.00;101702.31;1824086;78;20967;-70
2021/11/10 02:39:43;;;;;;;7.57;1.80;;;;;;;-1.46;100.00;101703.69;1794968;78;20981;-71
2021/11/10 02:42:09;;;;;;;3.73;1.93;;;;;;;-1.49;100.00;101705.11;1809805;78;21512;-72
2021/11/10 02:44:36;;;;;;;2.63;1.80;;;;;;;-1.50;100.00;101715.33;1819064;78;21002;-71
2021/11/10 02:47:04;;;;;;;3.10;2.00;;;;;;;-1.53;100.00;101707.86;1820188;78;21104;-72
2021/11/10 02:49:31;;;;;;;4.83;2.13;;;;;;;-1.54;100.00;101722.06;1822088;78;21393;-73
2021/11/10 02:52:02;;;;;;;3.03;1.70;;;;;;;-1.54;100.00;101722.50;1823982;78;21570;-72
2021/11/10 02:54:32;;;;;;;4.50;2.10;;;;;;;-1.55;100.00;101724.77;1744961;82;21014;-72
2021/11/10 02:57:01;;;;;;;3.80;2.30;;;;;;;-1.56;100.00;101729.21;1747611;81;21185;-72
2021/11/10 02:59:28;;;;;;;3.03;2.17;;;;;;;-1.57;100.00;101728.79;1764475;81;21033;-71
2021/11/10 03:01:57;;;;;;;4.63;2.30;;;;;;;-1.59;100.00;101735.08;1759722;81;21045;-72
2021/11/10 03:04:36;;;;;;;5.27;2.87;;;;;;;-1.61;100.00;101733.80;1799123;80;21013;-71
2021/11/10 03:07:04;;;;;;;5.17;2.70;;;;;;;-1.63;100.00;101747.58;1798975;80;21588;-72
2021/11/10 03:09:34;;;;;;;9.23;3.37;;;;;;;-1.67;100.00;101744.59;1765780;80;21078;-71
2021/11/10 03:12:04;;;;;;;10.80;3.80;;;;;;;-1.69;100.00;101748.23;1795662;80;21025;-72
2021/11/10 03:14:33;;;;;;;8.93;3.40;;;;;;;-1.72;100.00;101743.88;1778531;79;21002;-72
2021/11/10 03:17:00;;;;;;;8.30;3.50;;;;;;;-1.76;100.00;101757.70;1788461;80;21013;-72
2021/11/10 03:19:29;;;;;;;9.23;3.10;;;;;;;-1.80;100.00;101757.41;1788877;80;21112;-71
2021/11/10 03:21:56;;;;;;;6.17;3.00;;;;;;;-1.83;100.00;101761.47;1792288;80;20998;-73
2021/11/10 03:24:23;;;;;;;8.33;3.37;;;;;;;-1.87;100.00;101756.33;1792365;80;21510;-72
2021/11/10 03:26:50;;;;;;;7.37;3.60;;;;;;;-1.92;100.00;101753.35;1799246;80;20982;-72
2021/11/10 03:29:18;;;;;;;5.77;3.70;;;;;;;-1.95;100.00;101766.73;1799077;80;21021;-73
2021/11/10 03:31:46;;;;;;;7.17;3.33;;;;;;;-1.97;100.00;101771.66;1794991;80;21061;-71
2021/11/10 03:34:13;;;;;;;11.07;4.33;;;;;;;-2.00;100.00;101778.37;1794921;80;21062;-73
2021/11/10 03:36:40;;;;;;;14.20;5.20;;;;;;;-2.03;100.00;101786.44;1779898;80;21017;-73
2021/11/10 03:39:11;;;;;;;12.77;4.60;;;;;;;-2.04;100.00;101796.16;1783581;80;21037;-71
2021/11/10 03:41:39;;;;;;;15.53;5.40;;;;;;;-2.08;100.00;101797.17;1781838;80;21028;-72
2021/11/10 03:44:06;;;;;;;16.87;6.13;;;;;;;-2.11;100.00;101792.84;1783256;80;21535;-71
2021/11/10 03:46:37;;;;;;;19.67;7.30;;;;;;;-2.13;100.00;101797.77;1787059;80;21070;-71
2021/11/10 03:49:06;;;;;;;18.13;6.57;;;;;;;-2.16;100.00;101796.52;1789650;80;21060;-71
2021/11/10 03:51:33;;;;;;;19.73;5.97;;;;;;;-2.18;100.00;101799.25;1778483;80;21639;-72
2021/11/10 03:54:01;;;;;;;13.70;4.97;;;;;;;-2.20;100.00;101814.30;1780808;80;21010;-71
2021/11/10 03:56:28;;;;;;;9.47;3.57;;;;;;;-2.23;100.00;101807.80;1748979;81;21055;-73
2021/11/10 03:58:56;;;;;;;7.67;3.40;;;;;;;-2.26;100.00;101811.85;1777410;80;21045;-71
2021/11/10 04:01:24;;;;;;;6.10;3.27;;;;;;;-2.29;100.00;101810.61;1790998;80;21053;-73
2021/11/10 04:03:51;;;;;;;5.93;2.83;;;;;;;-2.31;100.00;101820.39;1785897;80;20986;-72
2021/11/10 04:06:19;;;;;;;7.00;3.10;;;;;;;-2.33;100.00;101827.05;1793704;80;21060;-71
2021/11/10 04:08:46;;;;;;;8.70;3.50;;;;;;;-2.36;100.00;101836.41;1756860;79;21034;-72
2021/11/10 04:11:14;;;;;;;10.23;3.37;;;;;;;-2.37;100.00;101837.34;1748544;82;21053;-72
2021/11/10 04:13:42;;;;;;;9.03;3.70;;;;;;;-2.39;100.00;101837.84;1746093;81;21038;-73
2021/11/10 04:16:09;;;;;;;12.97;4.60;;;;;;;-2.41;100.00;101843.61;1745852;82;21029;-74
2021/11/10 04:18:37;;;;;;;10.37;4.40;;;;;;;-2.45;100.00;101849.92;1746316;82;21066;-72
2021/11/10 04:21:08;;;;;;;13.07;4.70;;;;;;;-2.45;100.00;101849.06;1745708;81;21485;-72
2021/11/10 04:23:37;;;;;;;16.27;5.30;;;;;;;-2.47;100.00;101858.38;1747711;82;21093;-73
2021/11/10 04:26:05;;;;;;;12.63;4.27;;;;;;;-2.47;100.00;101864.14;1746381;82;21045;-73
2021/11/10 04:28:32;;;;;;;11.50;4.27;;;;;;;-2.49;100.00;101861.53;1747480;81;21034;-74
2021/11/10 04:30:59;;;;;;;9.93;4.43;;;;;;;-2.49;100.00;101866.83;1736448;82;21042;-72
2021/11/10 04:33:26;;;;;;;12.33;6.60;;;;;;;-2.51;100.00;101875.28;1715822;83;21018;-73
2021/11/10 04:35:55;;;;;;;13.27;6.03;;;;;;;-2.53;100.00;101875.31;1711089;83;21026;-73
2021/11/10 04:38:23;;;;;;;9.87;4.50;;;;;;;-2.54;100.00;101880.66;1748198;81;21476;-73
2021/11/10 04:40:51;;;;;;;13.97;4.93;;;;;;;-2.56;100.00;101889.96;1740558;82;20994;-73
2021/11/10 04:43:20;;;;;;;11.83;4.53;;;;;;;-2.58;100.00;101889.14;1750316;82;21065;-73
2021/11/10 04:45:52;;;;;;;13.93;5.30;;;;;;;-2.60;100.00;101900.66;1746812;82;21007;-72
2021/11/10 04:48:18;;;;;;;13.77;5.50;;;;;;;-2.60;100.00;101904.64;1741851;82;21049;-72
2021/11/10 04:50:47;;;;;;;14.43;5.37;;;;;;;-2.61;100.00;101909.08;1750544;82;21096;-74
2021/11/10 04:53:14;;;;;;;13.17;5.07;;;;;;;-2.65;100.00;101911.41;1750532;82;20982;-72
2021/11/10 04:55:43;;;;;;;10.90;4.90;;;;;;;-2.65;100.00;101915.37;1743824;82;21076;-73
2021/11/10 04:58:11;;;;;;;13.07;4.67;;;;;;;-2.68;100.00;101920.28;1747061;82;21067;-73
2021/11/10 05:00:39;;;;;;;22.60;8.33;;;;;;;-2.68;100.00;101922.92;1756505;81;20986;-73
2021/11/10 05:03:07;;;;;;;40.70;21.93;;;;;;;-2.68;100.00;101919.42;1761056;81;21071;-73
2021/11/10 05:05:36;;;;;;;20.43;8.60;;;;;;;-2.68;100.00;101926.04;1750539;81;21067;-72
2021/11/10 05:08:04;;;;;;;18.03;8.53;;;;;;;-2.69;100.00;101925.18;1726307;82;21051;-74
2021/11/10 05:10:32;;;;;;;20.40;9.27;;;;;;;-2.68;100.00;101928.69;1750764;82;21008;-72
2021/11/10 05:13:01;;;;;;;71.83;48.63;;;;;;;-2.69;100.00;101937.56;1750968;81;21001;-72
2021/11/10 05:15:28;;;;;;;22.47;10.93;;;;;;;-2.69;100.00;101941.53;1754228;81;21473;-72
2021/11/10 05:17:55;;;;;;;20.23;9.47;;;;;;;-2.70;100.00;101936.66;1750617;82;20971;-72
2021/11/10 05:20:24;;;;;;;19.37;9.57;;;;;;;-2.65;100.00;101949.80;1743349;81;21568;-72
2021/11/10 05:22:50;;;;;;;36.20;19.23;;;;;;;-2.58;100.00;101947.88;1755961;80;20996;-72
2021/11/10 05:25:17;;;;;;;32.87;17.30;;;;;;;-2.52;100.00;101965.77;1749944;81;21015;-73
2021/11/10 05:27:44;;;;;;;56.57;31.60;;;;;;;-2.38;100.00;101967.20;1757787;81;21014;-73
2021/11/10 05:30:12;;;;;;;85.77;46.77;;;;;;;-2.19;100.00;101973.75;1753224;81;21015;-73
2021/11/10 05:32:41;;;;;;;73.00;36.47;;;;;;;-1.98;100.00;101977.59;1753417;81;21142;-72
2021/11/10 05:35:08;;;;;;;50.47;28.83;;;;;;;-1.83;100.00;101972.77;1763564;80;21042;-73
2021/11/10 05:37:35;;;;;;;33.67;16.43;;;;;;;-1.80;100.00;101972.69;1768391;80;20982;-73
2021/11/10 05:40:06;;;;;;;24.20;11.53;;;;;;;-1.83;100.00;101971.44;1760499;80;21003;-72
2021/11/10 05:42:32;;;;;;;37.57;22.00;;;;;;;-1.88;100.00;101979.98;1761015;80;20966;-73
2021/11/10 05:44:59;;;;;;;16.87;8.70;;;;;;;-1.97;100.00;101977.12;1769102;80;21542;-72
2021/11/10 05:47:26;;;;;;;26.80;13.87;;;;;;;-2.03;100.00;101978.17;1744419;81;20963;-73
2021/11/10 05:49:53;;;;;;;18.37;9.10;;;;;;;-2.04;100.00;101980.39;1748097;80;21013;-72
2021/11/10 05:52:20;;;;;;;28.97;13.30;;;;;;;-2.07;100.00;101987.56;1762651;80;21089;-70
2021/11/10 05:54:48;;;;;;;24.67;13.80;;;;;;;-2.10;100.00;101992.52;1758309;80;20986;-73
2021/11/10 05:57:14;;;;;;;23.57;14.70;;;;;;;-2.08;100.00;101994.66;1763030;80;20990;-73
2021/11/10 05:59:42;;;;;;;19.83;9.07;;;;;;;-2.05;100.00;102001.21;1749523;81;20998;-73
2021/11/10 06:02:11;;;;;;;12.40;5.80;;;;;;;-2.04;100.00;102005.58;1755808;80;21041;-73
2021/11/10 06:04:38;;;;;;;59.93;29.73;;;;;;;-2.01;100.00;102008.63;1744287;81;21467;-73
2021/11/10 06:07:06;;;;;;;14.03;6.60;;;;;;;-1.98;100.00;102012.06;1764772;80;21015;-73
2021/11/10 06:09:35;;;;;;;15.33;6.97;;;;;;;-1.92;100.00;102011.88;1702806;83;21037;-73
2021/11/10 06:12:03;;;;;;;9.87;5.97;;;;;;;-1.87;100.00;102014.88;1708093;83;21491;-70
2021/11/10 06:14:29;;;;;;;13.97;6.73;;;;;;;-1.81;100.00;102018.67;1695750;82;21046;-71
2021/11/10 06:16:56;;;;;;;39.83;20.93;;;;;;;-1.77;100.00;102009.70;1717847;83;21554;-71
2021/11/10 06:19:26;;;;;;;53.20;24.37;;;;;;;-1.74;100.00;102018.44;1716543;83;21042;-70
2021/11/10 06:21:54;;;;;;;80.37;41.93;;;;;;;-1.70;100.00;102014.38;1683315;84;21034;-72
2021/11/10 06:24:21;;;;;;;67.63;33.73;;;;;;;-1.67;100.00;102011.19;1712332;83;21575;-72
2021/11/10 06:26:49;;;;;;;59.37;29.47;;;;;;;-1.62;100.00;102013.25;1694626;84;21188;-72
2021/11/10 06:29:16;;;;;;;134.57;62.00;;;;;;;-1.57;100.00;102010.47;1739482;81;21007;-72
2021/11/10 06:31:43;;;;;;;63.80;36.73;;;;;;;-1.54;100.00;102005.95;1702201;83;21040;-72
2021/11/10 06:34:10;;;;;;;27.23;14.03;;;;;;;-1.46;100.00;102008.36;1704141;84;21595;-69
2021/11/10 06:36:37;;;;;;;89.93;54.87;;;;;;;-1.38;100.00;102010.78;1747899;81;21067;-70
2021/11/10 06:39:04;;;;;;;28.93;15.67;;;;;;;-1.32;100.00;102006.63;1733056;82;21061;-71
2021/11/10 06:41:31;;;;;;;23.37;14.00;;;;;;;-1.19;100.00;102011.09;1744544;82;21019;-68
2021/11/10 06:43:58;;;;;;;32.73;20.83;;;;;;;-1.12;100.00;102009.13;1748384;82;21071;-75
2021/11/10 06:46:25;;;;;;;36.37;22.00;;;;;;;-1.04;100.00;102006.64;1748623;82;21474;-74
2021/11/10 06:48:52;;;;;;;26.00;13.77;;;;;;;-0.97;100.00;102010.84;1739631;82;21041;-73
2021/11/10 06:51:19;;;;;;;31.43;17.60;;;;;;;-0.85;100.00;102012.25;1738534;82;21101;-73
2021/11/10 06:53:46;;;;;;;27.00;14.77;;;;;;;-0.74;100.00;102016.32;1717880;82;21067;-73
2021/11/10 06:56:14;;;;;;;43.73;19.57;;;;;;;-0.61;100.00;102013.69;1722825;82;20976;-74
2021/11/10 06:58:41;;;;;;;17.77;7.90;;;;;;;-0.44;100.00;102023.30;1701554;83;21501;-74
2021/11/10 07:01:08;;;;;;;34.80;22.57;;;;;;;-0.30;100.00;102016.63;1736957;81;21050;-76
2021/11/10 07:03:35;;;;;;;21.93;12.10;;;;;;;-0.17;100.00;102013.96;1717114;81;21001;-74
2021/11/10 07:06:04;;;;;;;15.10;8.77;;;;;;;-0.05;100.00;102016.19;1715302;80;21068;-72
2021/11/10 07:08:31;;;;;;;20.67;12.03;;;;;;;0.12;100.00;102019.56;1728808;81;21067;-74
2021/11/10 07:10:58;;;;;;;12.87;5.67;;;;;;;0.26;100.00;102022.20;1733502;82;21512;-74
2021/11/10 07:13:26;;;;;;;14.43;6.10;;;;;;;0.38;100.00;102019.09;1773199;80;20986;-73
2021/11/10 07:15:55;;;;;;;15.70;8.10;;;;;;;0.51;100.00;102020.81;1752927;80;21050;-73
2021/11/10 07:18:22;;;;;;;21.17;12.07;;;;;;;0.60;100.00;102019.60;1733293;81;20996;-72
2021/11/10 07:20:49;;;;;;;20.80;10.60;;;;;;;0.75;100.00;102023.02;1761032;80;21050;-73
2021/11/10 07:23:18;;;;;;;20.57;10.67;;;;;;;0.96;100.00;102018.66;1737313;82;21065;-75
2021/11/10 07:25:45;;;;;;;20.77;10.87;;;;;;;1.20;100.00;102012.78;1732334;82;21019;-75
2021/11/10 07:28:13;;;;;;;10.87;4.97;;;;;;;1.37;100.00;102017.91;1738166;81;21009;-72
2021/11/10 07:30:40;;;;;;;19.27;10.73;;;;;;;1.47;100.00;102015.24;1746372;82;21499;-72
2021/11/10 07:33:09;;;;;;;26.50;15.80;;;;;;;1.53;100.00;102019.00;1731225;82;21049;-68
2021/11/10 07:35:36;;;;;;;22.80;11.23;;;;;;;1.65;100.00;102015.82;1721195;83;20995;-72
2021/11/10 07:38:04;;;;;;;23.53;8.80;;;;;;;1.80;100.00;102016.09;1750231;79;20974;-69
2021/11/10 07:40:32;;;;;;;19.73;10.90;;;;;;;1.95;100.00;102026.11;1761894;80;21450;-70
2021/11/10 07:42:59;;;;;;;20.63;12.53;;;;;;;2.13;100.00;102027.10;1772363;80;21070;-69
2021/11/10 07:45:37;;;;;;;25.13;13.67;;;;;;;2.22;100.00;102025.34;1728891;82;21031;-68
2021/11/10 07:48:07;;;;;;;21.73;9.57;;;;;;;2.22;100.00;102032.02;1731053;81;21093;-71
2021/11/10 07:50:34;;;;;;;18.47;8.67;;;;;;;2.30;100.00;102025.47;1771141;80;21088;-69
2021/11/10 07:53:02;;;;;;;17.57;10.43;;;;;;;2.39;100.00;102026.38;1740763;80;21114;-71
2021/11/10 07:55:29;;;;;;;28.07;18.10;;;;;;;2.47;100.00;102025.09;1750945;81;21463;-70
2021/11/10 07:57:56;;;;;;;13.50;7.50;;;;;;;2.61;100.00;102023.13;1745705;80;20994;-72
2021/11/10 08:00:23;;;;;;;15.30;8.73;;;;;;;2.72;100.00;102023.11;1748587;81;21535;-70
2021/11/10 08:02:50;;;;;;;18.90;8.60;;;;;;;2.80;100.00;102020.95;1751525;81;21543;-70
2021/11/10 08:05:17;;;;;;;41.97;23.03;;;;;;;2.89;100.00;102030.34;1749169;81;20959;-69
2021/11/10 08:07:44;;;;;;;50.47;30.00;;;;;;;3.01;100.00;102029.73;1745735;82;21537;-69
2021/11/10 08:10:14;;;;;;;37.60;20.17;;;;;;;3.13;100.00;102031.81;1746776;80;20969;-73
2021/11/10 08:12:41;;;;;;;53.40;32.20;;;;;;;3.31;100.00;102033.20;1745798;81;21068;-72
2021/11/10 08:15:11;;;;;;;28.00;15.53;;;;;;;3.49;100.00;102033.64;1739598;81;21128;-72
2021/11/10 08:17:39;;;;;;;28.87;16.37;;;;;;;3.55;100.00;102034.66;1759126;80;21050;-70
2021/11/10 08:20:09;;;;;;;23.47;14.73;;;;;;;3.56;100.00;102035.52;1743343;80;20995;-70
2021/11/10 08:22:38;;;;;;;24.03;13.30;;;;;;;3.47;100.00;102032.86;1746881;80;20984;-71
2021/11/10 08:25:07;;;;;;;27.00;17.07;;;;;;;3.55;100.00;102031.13;1756524;80;22001;-71
2021/11/10 08:27:35;;;;;;;28.37;18.00;;;;;;;3.60;100.00;102041.98;1753047;81;21527;-71
2021/11/10 08:30:12;;;;;;;25.03;13.70;;;;;;;3.68;100.00;102041.59;1756739;80;20986;-72
2021/11/10 08:32:40;;;;;;;20.70;8.40;;;;;;;3.65;100.00;102044.45;1752602;80;21002;-69
2021/11/10 08:35:07;;;;;;;25.70;13.83;;;;;;;3.70;100.00;102037.50;1759103;80;21053;-70
2021/11/10 08:37:34;;;;;;;26.60;13.03;;;;;;;3.82;100.00;102040.04;1739106;81;21022;-70
2021/11/10 08:40:03;;;;;;;21.10;10.80;;;;;;;3.85;100.00;102042.08;1747409;81;21009;-71
2021/11/10 08:42:33;;;;;;;49.57;22.50;;;;;;;3.84;100.00;102033.65;1729303;81;20998;-71
2021/11/10 08:45:05;;;;;;;27.33;15.10;;;;;;;3.85;100.00;102030.52;1741290;80;21519;-70
2021/11/10 08:47:31;;;;;;;26.80;16.77;;;;;;;3.98;100.00;102029.81;1689715;83;21043;-69
2021/11/10 08:49:59;;;;;;;43.43;21.63;;;;;;;4.11;100.00;102036.72;1714728;82;21561;-68
2021/11/10 08:52:27;;;;;;;34.70;22.57;;;;;;;4.13;100.00;102036.17;1696279;82;21076;-66
2021/11/10 08:54:55;;;;;;;28.40;15.97;;;;;;;4.15;100.00;102042.30;1699296;82;21051;-69
2021/11/10 08:57:22;;;;;;;41.60;23.03;;;;;;;4.22;100.00;102039.31;1691420;83;21030;-74
2021/11/10 08:59:49;;;;;;;41.17;22.47;;;;;;;4.30;100.00;102042.44;1696907;83;21544;-75
2021/11/10 09:02:17;;;;;;;73.33;34.17;;;;;;;4.31;100.00;102049.53;1689177;84;21761;-74
2021/11/10 09:04:44;;;;;;;105.17;43.27;;;;;;;4.18;100.00;102043.48;1704112;82;21022;-75
2021/11/10 09:07:11;;;;;;;74.67;33.60;;;;;;;4.16;100.00;102041.37;1714259;81;21519;-76
2021/11/10 09:09:39;;;;;;;185.67;55.73;;;;;;;4.18;100.00;102038.61;1734927;82;21057;-74
2021/11/10 09:12:09;;;;;;;103.97;36.83;;;;;;;4.28;100.00;102043.00;1692864;83;21614;-75
2021/11/10 09:14:38;;;;;;;70.17;53.77;;;;;;;4.35;100.00;102038.56;1694625;83;20993;-76
2021/11/10 09:17:05;;;;;;;26.03;17.57;;;;;;;4.34;100.00;102044.88;1681762;84;21062;-75
2021/11/10 09:19:35;;;;;;;33.93;21.77;;;;;;;4.31;100.00;102049.53;1703542;82;21090;-75
2021/11/10 09:22:02;;;;;;;32.90;20.30;;;;;;;4.35;100.00;102060.47;1726984;80;20994;-75
2021/11/10 09:24:29;;;;;;;25.77;16.27;;;;;;;4.45;100.00;102056.36;1720258;81;20958;-76
2021/11/10 09:26:56;;;;;;;21.17;12.80;;;;;;;4.45;100.00;102061.72;1730656;82;21102;-78
2021/11/10 09:29:23;;;;;;;19.27;10.87;;;;;;;4.44;100.00;102055.95;1689758;83;21508;-77
2021/11/10 09:31:50;;;;;;;14.87;8.50;;;;;;;4.55;100.00;102059.39;1696278;82;21013;-76
2021/11/10 09:34:17;;;;;;;22.37;14.73;;;;;;;4.55;100.00;102046.00;1728143;82;20971;-77
2021/11/10 09:36:47;;;;;;;28.07;17.23;;;;;;;4.51;100.00;102059.17;1689220;83;21460;-74
2021/11/10 09:39:20;;;;;;;30.90;21.20;;;;;;;4.44;100.00;102052.42;1710190;81;20998;-75
2021/11/10 09:41:49;;;;;;;23.18;13.18;;;;;;;4.65;100.00;102045.89;1634983;87;21088;-73
2021/11/10 09:44:18;;;;;;;22.70;11.73;;;;;;;4.65;100.00;102045.89;1691958;83;21007;-72
2021/11/10 09:46:45;;;;;;;17.43;8.47;;;;;;;4.79;100.00;102053.67;1685019;83;21123;-73
2021/11/10 09:49:13;;;;;;;34.57;18.40;;;;;;;4.92;100.00;102056.94;1697889;83;21041;-74
2021/11/10 09:51:42;;;;;;;41.40;19.30;;;;;;;5.07;100.00;102059.70;1707483;82;21087;-76
2021/11/10 09:54:09;;;;;;;25.77;12.07;;;;;;;5.08;100.00;102062.76;1651788;84;21495;-76
2021/11/10 09:56:37;;;;;;;15.67;7.90;;;;;;;5.07;100.00;102064.59;1706522;81;21112;-74
2021/11/10 09:59:05;;;;;;;13.60;5.87;;;;;;;5.05;100.00;102069.66;1725655;81;21098;-74
2021/11/10 10:01:35;;;;;;;17.03;7.87;;;;;;;4.98;100.00;102070.47;1720173;82;21056;-74
2021/11/10 10:04:01;;;;;;;19.83;8.17;;;;;;;4.90;100.00;102064.66;1710489;82;21003;-73
2021/11/10 10:06:30;;;;;;;17.83;9.13;;;;;;;4.78;100.00;102068.89;1713587;82;21105;-71
2021/11/10 10:08:58;;;;;;;28.93;15.87;;;;;;;4.66;100.00;102065.05;1710716;82;21501;-71
2021/11/10 10:11:27;;;;;;;20.27;10.27;;;;;;;4.69;100.00;102070.71;1712556;82;20999;-70
2021/11/10 10:13:55;;;;;;;20.13;9.13;;;;;;;4.75;100.00;102075.75;1703795;82;21033;-67
2021/11/10 10:16:25;;;;;;;15.97;8.43;;;;;;;4.70;100.00;102069.30;1722306;82;21070;-68
2021/11/10 10:19:04;;;;;;;14.07;6.40;;;;;;;4.78;100.00;102070.69;1714443;83;21085;-71
2021/11/10 10:21:31;;;;;;;12.67;6.13;;;;;;;4.94;100.00;102069.77;1712774;82;21484;-69
2021/11/10 10:23:59;;;;;;;25.57;13.67;;;;;;;5.12;100.00;102066.53;1710958;82;21543;-71
2021/11/10 10:26:26;;;;;;;20.53;11.47;;;;;;;5.25;100.00;102063.16;1723097;82;21010;-72
2021/11/10 10:28:58;;;;;;;24.00;13.60;;;;;;;5.37;100.00;102066.98;1715460;82;20997;-70
2021/11/10 10:31:27;;;;;;;36.63;24.30;;;;;;;5.20;100.00;102072.80;1674653;84;21050;-73
2021/11/10 10:33:58;;;;;;;35.33;19.53;;;;;;;5.08;100.00;102078.84;1675903;85;21027;-70
2021/11/10 10:36:28;;;;;;;21.73;11.97;;;;;;;5.10;100.00;102075.63;1613299;87;21586;-72
2021/11/10 10:39:05;;;;;;;20.07;10.67;;;;;;;5.00;100.00;102075.27;1628896;86;21025;-75
2021/11/10 10:41:41;;;;;;;20.33;10.27;;;;;;;4.91;100.00;102083.34;1586932;89;21035;-72
2021/11/10 10:44:16;;;;;;;20.00;10.23;;;;;;;4.99;100.00;102079.37;1610774;87;21542;-68
2021/11/10 10:46:47;;;;;;;18.30;9.13;;;;;;;5.04;100.00;102078.64;1594882;89;21025;-72
2021/11/10 10:49:23;;;;;;;22.30;12.73;;;;;;;4.99;100.00;102083.39;1594692;89;21531;-78
2021/11/10 10:51:52;;;;;;;20.20;10.33;;;;;;;4.92;100.00;102081.06;1588090;89;21114;-78
2021/11/10 10:54:22;;;;;;;21.17;12.07;;;;;;;4.91;100.00;102074.44;1556537;91;21097;-74
2021/11/10 10:56:57;;;;;;;17.17;8.73;;;;;;;5.04;100.00;102073.28;1544655;91;21144;-73
2021/11/10 10:59:29;;;;;;;19.50;10.57;;;;;;;5.20;100.00;102071.94;1560395;91;21069;-74
2021/11/10 11:02:00;;;;;;;16.30;7.90;;;;;;;5.28;100.00;102067.02;1567131;90;21528;-76
2021/11/10 11:04:29;;;;;;;18.97;9.53;;;;;;;5.28;100.00;102065.20;1576195;90;21539;-74
2021/11/10 11:07:08;;;;;;;15.63;8.03;;;;;;;5.38;100.00;102053.93;1565599;90;21564;-76
2021/11/10 11:09:49;;;;;;;19.77;11.90;;;;;;;5.45;100.00;102052.17;1566055;90;21081;-73
2021/11/10 11:12:32;;;;;;;12.30;6.30;;;;;;;5.28;100.00;102054.95;1557956;90;21038;-70
2021/11/10 11:15:14;;;;;;;9.03;4.87;;;;;;;5.22;100.00;102049.92;1551780;90;21188;-70
2021/11/10 11:17:47;;;;;;;17.67;10.17;;;;;;;5.32;100.00;102047.11;1545802;91;21313;-70